Lebo, Kansas
Current Conditions -  °F | °C
As of 7:53 PM on Friday 24 Oct 2014 (Local Time) from KEMP Reporting Station
Clear Clear  
Wind Chill: 19°   Ceiling: Unl
Heat Index: 19°   Visibility: 10mi
Dew Point: 16°   Wind: 10mph
Humidity: 84%   Direction: 190°S
Pressure: 29.98"   Gusts: NA
Location:  38.42°N, 95.85°W
Report Text: KEMP 250053Z AUTO 19009KT 10SM CLR 19/16 A2998 RMK AO2 SLP149 T01890161
Loading
Personal Weather Stations






























Interactive Weather Map
Tropical Storm Tracking
New forecast layout! Learn more

10-Day Weather Forecast

Advertisements
Track Severe Weather on mobile